Time;durP1;ratioP1;P1;durP2;ratioP2;P2;SDS_P1;SDS_P2;PMS_P1;PMS_P2;Temp;Humidity;BMP_temperature;BMP_pressure;BME280_temperature;BME280_humidity;BME280_pressure;Samples;Min_cycle;Max_cycle;Signal;HPM_P1;HPM_P2
2021/04/20 00:01:45;;;;;;;13.40;12.20;;;;;;;6.22;100.00;98076.59;5061985;28;20227;-71
2021/04/20 00:04:12;;;;;;;12.87;11.67;;;;;;;6.14;100.00;98068.53;5062674;28;20734;-71
2021/04/20 00:06:39;;;;;;;13.03;11.80;;;;;;;6.05;100.00;98070.16;5062509;28;20221;-71
2021/04/20 00:09:07;;;;;;;12.57;11.47;;;;;;;6.05;100.00;98060.47;5063428;28;20202;-72
2021/04/20 00:11:35;;;;;;;12.33;11.23;;;;;;;6.08;100.00;98069.91;5057718;28;20230;-71
2021/04/20 00:14:02;;;;;;;13.00;11.87;;;;;;;6.04;100.00;98066.72;5056057;28;20213;-71
2021/04/20 00:16:30;;;;;;;14.57;13.17;;;;;;;6.03;100.00;98069.47;5061753;28;20221;-71
2021/04/20 00:18:57;;;;;;;12.30;11.20;;;;;;;6.02;100.00;98068.66;5060114;28;20207;-71
2021/04/20 00:21:24;;;;;;;13.07;11.67;;;;;;;6.04;100.00;98068.50;5059609;28;20226;-71
2021/04/20 00:23:51;;;;;;;12.93;11.77;;;;;;;6.05;100.00;98064.91;5060814;28;20198;-72
2021/04/20 00:26:18;;;;;;;12.40;11.20;;;;;;;6.33;100.00;98065.97;5060011;28;20241;-72
2021/04/20 00:28:45;;;;;;;12.87;11.63;;;;;;;6.28;100.00;98067.34;5062029;28;20625;-71
2021/04/20 00:31:12;;;;;;;13.27;11.87;;;;;;;6.31;100.00;98061.78;5059193;28;20801;-71
2021/04/20 00:33:41;;;;;;;12.23;11.03;;;;;;;6.37;100.00;98063.88;5063435;28;20214;-71
2021/04/20 00:36:09;;;;;;;12.50;11.30;;;;;;;6.27;100.00;98060.41;5061936;28;20200;-72
2021/04/20 00:38:36;;;;;;;12.90;11.60;;;;;;;6.05;100.00;98055.22;5053652;28;20216;-72
2021/04/20 00:41:05;;;;;;;12.67;11.47;;;;;;;6.22;100.00;98055.53;5061066;28;20227;-72
2021/04/20 00:43:33;;;;;;;13.83;12.43;;;;;;;6.12;100.00;98062.56;5059971;28;20202;-71
2021/04/20 00:46:00;;;;;;;13.60;12.20;;;;;;;5.96;100.00;98057.78;5061375;28;20221;-72
2021/04/20 00:48:27;;;;;;;13.17;11.87;;;;;;;5.94;100.00;98058.75;5061478;28;20207;-71
2021/04/20 00:50:55;;;;;;;12.83;11.67;;;;;;;5.97;100.00;98059.44;5061317;28;20215;-71
2021/04/20 00:53:22;;;;;;;13.80;12.50;;;;;;;5.87;100.00;98049.72;5056539;28;20233;-72
2021/04/20 00:55:49;;;;;;;12.67;11.57;;;;;;;5.83;100.00;98050.13;5060970;28;20210;-72
2021/04/20 00:58:16;;;;;;;12.50;11.30;;;;;;;5.79;100.00;98050.38;5060830;28;20297;-72
2021/04/20 01:00:43;;;;;;;13.90;12.60;;;;;;;5.97;100.00;98057.66;5060462;28;20233;-72
2021/04/20 01:03:10;;;;;;;13.70;12.40;;;;;;;6.06;100.00;98056.03;5062013;28;20199;-72
2021/04/20 01:05:38;;;;;;;13.63;12.33;;;;;;;5.99;100.00;98050.47;5061848;28;20235;-72
2021/04/20 01:08:08;;;;;;;13.63;12.30;;;;;;;5.95;100.00;98049.06;5061348;28;20237;-72
2021/04/20 01:10:37;;;;;;;13.73;12.43;;;;;;;6.05;100.00;98054.38;5055463;28;20230;-72
2021/04/20 01:13:04;;;;;;;12.97;11.80;;;;;;;6.05;100.00;98054.38;5056504;28;20203;-72
2021/04/20 01:15:32;;;;;;;14.10;12.80;;;;;;;6.11;100.00;98050.38;5058944;28;20214;-70
2021/04/20 01:18:09;;;;;;;13.50;12.20;;;;;;;6.16;100.00;98053.44;5059252;28;20203;-72
2021/04/20 01:20:36;;;;;;;14.93;13.33;;;;;;;6.13;100.00;98051.94;5060168;28;20315;-72
2021/04/20 01:23:04;;;;;;;13.97;12.67;;;;;;;6.13;100.00;98056.34;5062616;28;20202;-71
2021/04/20 01:25:32;;;;;;;13.83;12.40;;;;;;;6.05;100.00;98055.22;5060182;28;20230;-70
2021/04/20 01:27:59;;;;;;;14.23;12.73;;;;;;;5.89;100.00;98057.50;5062434;28;20578;-71
2021/04/20 01:30:26;;;;;;;14.97;13.57;;;;;;;6.07;100.00;98053.28;5058510;28;20243;-71
2021/04/20 01:32:53;;;;;;;15.27;13.87;;;;;;;6.03;100.00;98054.53;5064641;28;20207;-72
2021/04/20 01:35:20;;;;;;;14.77;13.30;;;;;;;5.91;100.00;98052.94;5058011;28;20211;-72
2021/04/20 01:37:47;;;;;;;15.50;14.10;;;;;;;5.98;100.00;98046.16;5059923;28;20229;-72
2021/04/20 01:40:15;;;;;;;14.60;13.30;;;;;;;5.96;100.00;98050.75;5059435;28;20218;-72
2021/04/20 01:42:43;;;;;;;16.07;14.47;;;;;;;6.04;100.00;98044.81;5060294;28;20211;-71
2021/04/20 01:45:11;;;;;;;15.23;13.77;;;;;;;5.95;100.00;98043.81;5057078;28;20199;-71
2021/04/20 01:47:38;;;;;;;14.87;13.47;;;;;;;5.94;100.00;98047.41;5058150;28;20304;-70
2021/04/20 01:50:07;;;;;;;15.87;14.47;;;;;;;5.88;100.00;98042.69;5055220;28;20198;-72
2021/04/20 01:52:34;;;;;;;14.67;13.27;;;;;;;5.98;100.00;98045.31;5058010;28;20228;-71
2021/04/20 01:55:01;;;;;;;15.73;14.10;;;;;;;5.97;100.00;98047.13;5063118;28;20711;-71
2021/04/20 01:57:29;;;;;;;15.87;14.10;;;;;;;6.01;100.00;98043.31;5060321;28;20212;-70
2021/04/20 01:59:58;;;;;;;15.87;14.23;;;;;;;6.01;100.00;98047.72;5064905;28;20210;-71
2021/04/20 02:02:25;;;;;;;13.87;12.67;;;;;;;5.93;100.00;98045.75;5064817;28;20221;-70
2021/04/20 02:04:52;;;;;;;16.17;14.47;;;;;;;6.04;100.00;98048.28;5065257;28;20694;-70
2021/04/20 02:07:19;;;;;;;13.80;12.53;;;;;;;5.96;100.00;98040.22;5066206;28;20237;-71
2021/04/20 02:09:46;;;;;;;14.47;12.67;;;;;;;5.75;100.00;98041.09;5061630;28;20202;-70
2021/04/20 02:12:14;;;;;;;15.47;13.87;;;;;;;5.76;100.00;98048.00;5064587;28;20227;-71
2021/04/20 02:14:40;;;;;;;15.87;13.93;;;;;;;5.90;100.00;98048.63;5057837;28;20223;-71
2021/04/20 02:17:09;;;;;;;16.50;14.83;;;;;;;5.79;100.00;98047.75;5063279;28;20204;-71
2021/04/20 02:19:36;;;;;;;16.27;14.57;;;;;;;5.77;100.00;98047.06;5060003;28;20222;-71
2021/04/20 02:22:03;;;;;;;15.53;14.03;;;;;;;5.77;100.00;98049.69;5063135;28;20731;-70
2021/04/20 02:24:30;;;;;;;15.33;13.83;;;;;;;5.86;100.00;98049.84;5063335;28;20203;-70
2021/04/20 02:26:58;;;;;;;16.30;14.70;;;;;;;5.79;100.00;98053.00;5062742;28;20219;-71
2021/04/20 02:29:25;;;;;;;13.77;12.53;;;;;;;5.76;100.00;98047.19;5064353;28;20563;-71
2021/04/20 02:31:52;;;;;;;15.10;13.70;;;;;;;5.93;100.00;98056.25;5066217;28;20229;-71
2021/04/20 02:34:21;;;;;;;16.83;14.33;;;;;;;5.79;100.00;98049.56;5061987;28;20305;-71
2021/04/20 02:36:51;;;;;;;16.30;14.70;;;;;;;5.67;100.00;98051.44;5061450;28;20200;-72
2021/04/20 02:39:18;;;;;;;15.50;14.10;;;;;;;5.97;100.00;98054.19;5064563;28;20671;-71
2021/04/20 02:41:46;;;;;;;17.13;15.53;;;;;;;5.71;100.00;98046.75;5062224;28;20223;-72
2021/04/20 02:44:13;;;;;;;16.77;15.17;;;;;;;5.67;100.00;98038.28;5062998;28;20236;-71
2021/04/20 02:46:41;;;;;;;16.23;14.53;;;;;;;5.75;100.00;98042.91;5060919;28;20229;-70
2021/04/20 02:49:09;;;;;;;16.77;15.20;;;;;;;5.62;100.00;98035.22;5060356;28;20203;-70
2021/04/20 02:51:37;;;;;;;15.50;14.03;;;;;;;5.65;100.00;98035.78;5062705;28;20273;-70
2021/04/20 02:54:06;;;;;;;17.53;15.77;;;;;;;5.65;100.00;98038.41;5064488;28;20211;-71
2021/04/20 02:56:35;;;;;;;15.30;13.80;;;;;;;5.63;100.00;98032.47;5060543;28;20199;-69
2021/04/20 02:59:05;;;;;;;17.30;15.60;;;;;;;5.64;100.00;98033.31;5061639;28;20195;-70
2021/04/20 03:01:36;;;;;;;16.97;15.23;;;;;;;5.63;100.00;98029.81;5061071;28;20905;-71
2021/04/20 03:04:04;;;;;;;17.07;15.47;;;;;;;5.56;100.00;98025.25;5062661;28;20286;-69
2021/04/20 03:06:31;;;;;;;17.60;15.07;;;;;;;5.50;100.00;98030.06;5062370;28;20227;-70
2021/04/20 03:08:59;;;;;;;16.93;15.23;;;;;;;5.62;100.00;98030.78;5064169;28;20214;-70
2021/04/20 03:11:30;;;;;;;17.30;15.37;;;;;;;5.67;100.00;98026.94;5062517;28;20237;-70
2021/04/20 03:13:59;;;;;;;15.03;13.60;;;;;;;5.59;100.00;98027.59;5063986;28;20203;-71
2021/04/20 03:16:32;;;;;;;19.00;16.90;;;;;;;5.70;100.00;98030.16;5063608;28;20237;-70
2021/04/20 03:18:59;;;;;;;17.60;15.80;;;;;;;5.75;100.00;98027.94;5060608;28;20674;-70
2021/04/20 03:21:27;;;;;;;17.27;15.57;;;;;;;5.76;100.00;98034.06;5060190;28;20234;-71
2021/04/20 03:23:55;;;;;;;17.33;15.63;;;;;;;5.71;100.00;98031.81;5063981;28;20294;-70
2021/04/20 03:26:37;;;;;;;16.00;14.60;;;;;;;5.74;100.00;98031.53;5061863;28;20280;-70
2021/04/20 03:29:07;;;;;;;16.90;15.30;;;;;;;5.64;100.00;98033.31;5064113;28;20576;-69
2021/04/20 03:31:37;;;;;;;16.67;15.03;;;;;;;5.46;100.00;98038.34;5063372;28;20281;-70
2021/04/20 03:34:12;;;;;;;18.07;16.27;;;;;;;5.53;100.00;98038.66;5061501;28;20602;-71
2021/04/20 03:36:43;;;;;;;17.90;16.00;;;;;;;5.70;100.00;98031.94;5058847;28;20548;-71
2021/04/20 03:39:14;;;;;;;17.93;16.23;;;;;;;5.65;100.00;98029.72;5062268;28;20211;-70
2021/04/20 03:41:48;;;;;;;19.00;17.10;;;;;;;5.45;100.00;98032.22;5058473;28;20223;-70
2021/04/20 03:44:18;;;;;;;17.03;15.33;;;;;;;5.46;100.00;98030.44;5063149;28;20199;-70
2021/04/20 03:46:46;;;;;;;17.43;15.83;;;;;;;5.46;100.00;98035.72;5061007;28;20206;-70
2021/04/20 03:49:17;;;;;;;21.63;17.30;;;;;;;5.57;100.00;98037.44;5059250;28;20576;-70
2021/04/20 03:51:51;;;;;;;18.67;16.80;;;;;;;5.50;100.00;98040.59;5056287;28;20222;-70
2021/04/20 03:54:19;;;;;;;17.50;15.77;;;;;;;5.70;100.00;98039.84;5061866;28;20207;-71
2021/04/20 03:56:48;;;;;;;17.63;15.83;;;;;;;5.57;100.00;98042.69;5063659;28;20207;-70
2021/04/20 03:59:16;;;;;;;18.07;16.37;;;;;;;5.59;100.00;98046.00;5064874;28;20664;-70
2021/04/20 04:01:45;;;;;;;18.60;16.60;;;;;;;5.61;100.00;98037.00;5059113;28;20237;-71
2021/04/20 04:04:16;;;;;;;19.23;17.33;;;;;;;5.48;100.00;98042.47;5059908;28;20721;-70
2021/04/20 04:06:43;;;;;;;19.27;17.20;;;;;;;5.69;100.00;98040.81;5060956;28;20218;-70
2021/04/20 04:09:12;;;;;;;19.67;16.10;;;;;;;5.59;100.00;98035.50;5061763;28;20671;-70
2021/04/20 04:11:45;;;;;;;18.03;16.10;;;;;;;5.74;100.00;98039.44;5059903;28;20532;-70
2021/04/20 04:14:14;;;;;;;18.30;16.40;;;;;;;5.57;100.00;98030.34;5062322;28;21041;-65
2021/04/20 04:16:43;;;;;;;17.57;15.80;;;;;;;5.44;100.00;98035.81;5060219;28;20195;-65
2021/04/20 04:19:11;;;;;;;18.63;16.83;;;;;;;5.43;100.00;98030.72;5058858;28;20206;-64
2021/04/20 04:21:43;;;;;;;17.30;15.67;;;;;;;5.44;100.00;98030.56;5061171;28;20732;-65
2021/04/20 04:24:12;;;;;;;18.27;16.37;;;;;;;5.40;100.00;98028.34;5059155;28;20615;-65
2021/04/20 04:26:43;;;;;;;19.43;17.33;;;;;;;5.56;100.00;98033.94;5060164;28;20322;-64
2021/04/20 04:29:14;;;;;;;18.53;16.73;;;;;;;5.48;100.00;98037.22;5060533;28;20199;-65
2021/04/20 04:31:44;;;;;;;19.03;17.13;;;;;;;5.43;100.00;98038.59;5062426;28;20329;-65
2021/04/20 04:34:13;;;;;;;18.23;16.50;;;;;;;5.42;100.00;98039.56;5056630;28;20210;-65
2021/04/20 04:36:41;;;;;;;18.17;16.37;;;;;;;5.70;100.00;98038.03;5060173;28;20206;-65
2021/04/20 04:39:11;;;;;;;19.20;17.23;;;;;;;5.83;100.00;98043.06;5061271;28;20556;-65
2021/04/20 04:41:40;;;;;;;20.33;18.33;;;;;;;5.82;100.00;98044.03;5056404;28;20230;-65
2021/04/20 04:44:07;;;;;;;19.80;17.90;;;;;;;5.78;100.00;98042.63;5061157;28;20203;-65
2021/04/20 04:46:35;;;;;;;18.13;16.33;;;;;;;5.62;100.00;98040.50;5058866;28;20233;-70
2021/04/20 04:49:02;;;;;;;18.90;16.90;;;;;;;5.61;100.00;98036.19;5061263;28;20234;-70
2021/04/20 04:51:30;;;;;;;18.53;16.73;;;;;;;5.55;100.00;98042.81;5062682;28;20673;-69
2021/04/20 04:53:57;;;;;;;20.10;17.07;;;;;;;5.87;100.00;98047.09;5061971;28;20202;-69
2021/04/20 04:56:24;;;;;;;19.03;17.13;;;;;;;5.76;100.00;98040.13;5060495;28;20199;-70
2021/04/20 04:58:53;;;;;;;19.57;17.47;;;;;;;5.65;100.00;98040.22;5060953;28;20555;-69
2021/04/20 05:01:20;;;;;;;18.80;16.97;;;;;;;5.45;100.00;98039.31;5059559;28;20234;-70
2021/04/20 05:03:48;;;;;;;20.63;18.50;;;;;;;5.50;100.00;98051.09;5058275;28;20213;-71
2021/04/20 05:06:17;;;;;;;19.07;17.03;;;;;;;5.44;100.00;98048.16;5060510;28;20230;-70
2021/04/20 05:08:44;;;;;;;19.03;17.03;;;;;;;5.40;100.00;98044.13;5058468;28;20203;-70
2021/04/20 05:11:14;;;;;;;19.23;17.43;;;;;;;5.44;100.00;98051.59;5059132;28;20225;-70
2021/04/20 05:13:41;;;;;;;20.60;18.60;;;;;;;5.32;100.00;98047.38;5057389;28;20203;-70
2021/04/20 05:16:09;;;;;;;19.77;17.77;;;;;;;5.31;100.00;98051.81;5060483;28;20199;-70
2021/04/20 05:18:37;;;;;;;19.53;17.60;;;;;;;5.28;100.00;98056.50;5059882;28;20214;-70
2021/04/20 05:21:06;;;;;;;21.00;18.90;;;;;;;5.29;100.00;98063.41;5059607;28;20500;-70
2021/04/20 05:23:34;;;;;;;20.20;18.20;;;;;;;5.56;100.00;98060.25;5059392;28;20211;-70
2021/04/20 05:26:01;;;;;;;20.23;18.23;;;;;;;5.61;100.00;98057.22;5059336;28;20245;-70
2021/04/20 05:28:28;;;;;;;22.63;20.20;;;;;;;5.54;100.00;98063.97;5062945;28;20210;-71
2021/04/20 05:30:56;;;;;;;21.13;19.07;;;;;;;5.55;100.00;98055.94;5061683;28;20435;-70
2021/04/20 05:33:23;;;;;;;20.50;18.50;;;;;;;5.46;100.00;98062.81;5065050;28;20218;-70
2021/04/20 05:35:50;;;;;;;20.67;18.63;;;;;;;5.44;100.00;98062.09;5062130;28;20226;-71
2021/04/20 05:38:20;;;;;;;21.27;18.93;;;;;;;5.50;100.00;98063.41;5058073;28;20238;-70
2021/04/20 05:40:47;;;;;;;22.17;19.80;;;;;;;5.49;100.00;98065.22;5059416;28;20268;-71
2021/04/20 05:43:14;;;;;;;21.63;19.53;;;;;;;5.52;100.00;98058.84;5057126;28;20203;-70
2021/04/20 05:45:41;;;;;;;20.50;18.33;;;;;;;5.61;100.00;98058.03;5061110;28;20213;-70
2021/04/20 05:48:10;;;;;;;21.33;19.23;;;;;;;5.66;100.00;98057.66;5061772;28;20243;-71
2021/04/20 05:50:38;;;;;;;21.13;18.83;;;;;;;5.76;100.00;98055.09;5060257;28;20718;-70
2021/04/20 05:53:05;;;;;;;21.17;18.97;;;;;;;5.80;100.00;98053.84;5060426;28;20932;-70
2021/04/20 05:55:33;;;;;;;42.37;35.50;;;;;;;5.93;100.00;98062.34;5061041;28;20207;-70
2021/04/20 05:58:00;;;;;;;28.33;25.23;;;;;;;6.03;100.00;98061.56;5061567;28;20670;-70
2021/04/20 06:00:27;;;;;;;24.27;21.23;;;;;;;6.17;100.00;98060.38;5059283;28;20227;-70
2021/04/20 06:02:56;;;;;;;25.47;19.93;;;;;;;6.25;100.00;98063.19;5060706;28;20679;-70
2021/04/20 06:05:26;;;;;;;22.17;19.90;;;;;;;6.41;100.00;98067.91;5059467;28;20717;-70
2021/04/20 06:07:54;;;;;;;21.27;19.20;;;;;;;6.41;100.00;98064.44;5058767;28;20219;-70
2021/04/20 06:10:21;;;;;;;22.33;19.93;;;;;;;6.61;100.00;98068.75;5060981;28;20226;-70
2021/04/20 06:12:49;;;;;;;22.93;20.63;;;;;;;6.55;100.00;98071.13;5061056;28;20211;-71
2021/04/20 06:15:21;;;;;;;23.50;20.87;;;;;;;6.64;99.68;98071.16;5058084;28;20687;-71
2021/04/20 06:17:50;;;;;;;24.83;22.17;;;;;;;6.62;99.86;98073.06;5059032;28;20682;-71
2021/04/20 06:20:19;;;;;;;25.20;22.40;;;;;;;6.55;99.47;98073.75;5059467;28;20242;-71
2021/04/20 06:22:47;;;;;;;26.87;23.93;;;;;;;6.55;99.45;98074.56;5061041;28;20470;-71
2021/04/20 06:25:16;;;;;;;25.83;23.20;;;;;;;6.63;98.17;98076.53;5059904;28;20586;-71
2021/04/20 06:27:44;;;;;;;24.90;22.33;;;;;;;6.76;96.09;98084.19;5060611;28;20318;-71
2021/04/20 06:30:13;;;;;;;27.03;23.57;;;;;;;6.68;96.47;98079.59;5058720;28;20613;-71
2021/04/20 06:32:42;;;;;;;26.27;23.57;;;;;;;6.64;97.39;98081.69;5060933;28;20214;-70
2021/04/20 06:35:12;;;;;;;26.53;23.83;;;;;;;6.66;96.67;98078.91;5059440;28;20215;-71
2021/04/20 06:37:41;;;;;;;25.73;23.00;;;;;;;6.60;98.34;98076.81;5058523;28;20768;-71
2021/04/20 06:40:10;;;;;;;25.90;23.10;;;;;;;6.83;96.93;98080.03;5063876;28;20202;-71
2021/04/20 06:42:40;;;;;;;25.53;22.93;;;;;;;7.07;95.95;98082.22;5062378;28;20211;-70
2021/04/20 06:45:11;;;;;;;25.43;22.83;;;;;;;7.04;94.31;98090.44;5056711;28;20211;-71
2021/04/20 06:47:43;;;;;;;25.17;22.67;;;;;;;7.08;94.14;98086.53;5062154;28;20641;-70
2021/04/20 06:50:13;;;;;;;23.53;21.20;;;;;;;7.18;93.33;98085.69;5064025;28;20273;-71
2021/04/20 06:52:50;;;;;;;23.63;21.33;;;;;;;7.31;93.07;98090.69;5062741;28;20452;-71
2021/04/20 06:55:24;;;;;;;23.63;21.20;;;;;;;7.46;91.69;98077.88;5060796;28;20214;-70
2021/04/20 06:58:01;;;;;;;25.57;22.87;;;;;;;7.51;91.55;98078.28;5063430;28;20203;-70
2021/04/20 07:00:29;;;;;;;25.37;22.70;;;;;;;7.66;89.56;98076.03;5064574;28;20223;-70
2021/04/20 07:03:00;;;;;;;26.07;22.90;;;;;;;7.56;90.48;98075.25;5063059;28;20618;-70
2021/04/20 07:05:31;;;;;;;25.80;23.00;;;;;;;7.71;89.01;98078.25;5061437;28;20210;-70
2021/04/20 07:08:05;;;;;;;24.37;21.27;;;;;;;7.89;88.05;98070.41;5062180;28;20227;-70
2021/04/20 07:10:34;;;;;;;23.80;21.37;;;;;;;7.96;88.17;98066.22;5063593;28;20992;-69
2021/04/20 07:13:06;;;;;;;26.03;22.50;;;;;;;8.02;89.13;98075.38;5062970;28;20199;-70
2021/04/20 07:15:35;;;;;;;26.13;23.53;;;;;;;8.09;88.14;98076.44;5063981;28;20211;-70
2021/04/20 07:18:27;;;;;;;36.40;30.07;;;;;;;8.18;86.19;98072.91;5062511;28;20685;-70
2021/04/20 07:21:05;;;;;;;29.67;25.43;;;;;;;8.49;83.90;98075.28;5060513;28;20242;-70
2021/04/20 07:23:54;;;;;;;32.33;26.33;;;;;;;8.52;83.98;98079.41;5062887;28;20274;-70
2021/04/20 07:26:37;;;;;;;34.90;28.57;;;;;;;8.68;82.38;98076.97;5059846;28;20606;-70
2021/04/20 07:29:32;;;;;;;35.37;28.60;;;;;;;8.34;83.95;98071.47;5061803;28;20284;-70
2021/04/20 07:32:22;;;;;;;27.60;24.93;;;;;;;8.43;83.36;98073.22;5039232;28;20226;-70
2021/04/20 07:34:59;;;;;;;26.83;24.07;;;;;;;8.40;84.31;98070.88;5060477;28;20211;-70
2021/04/20 07:37:37;;;;;;;30.20;26.67;;;;;;;8.37;85.27;98074.63;5062529;28;20217;-70
2021/04/20 07:40:17;;;;;;;30.07;26.57;;;;;;;8.82;82.53;98074.78;5062149;28;20199;-69
2021/04/20 07:43:03;;;;;;;30.03;24.90;;;;;;;8.85;82.17;98065.72;5057673;28;20567;-70
2021/04/20 07:45:36;;;;;;;28.50;25.40;;;;;;;9.23;78.28;98075.13;5060729;28;20206;-70
2021/04/20 07:48:10;;;;;;;41.53;24.83;;;;;;;9.30;78.63;98063.94;5059929;28;20241;-70
2021/04/20 07:50:46;;;;;;;29.20;25.43;;;;;;;9.44;78.46;98063.38;5061133;28;20519;-70
2021/04/20 07:53:21;;;;;;;27.73;24.77;;;;;;;9.41;79.75;98066.34;5063127;28;20206;-70
2021/04/20 07:55:55;;;;;;;27.40;24.67;;;;;;;9.54;78.03;98071.22;5056959;28;20618;-73
2021/04/20 07:58:23;;;;;;;29.93;26.70;;;;;;;9.54;76.54;98064.09;5062116;28;20205;-70
2021/04/20 08:00:57;;;;;;;29.43;26.23;;;;;;;9.63;78.24;98064.16;5060565;28;20732;-70
2021/04/20 08:03:29;;;;;;;29.20;26.23;;;;;;;9.84;75.60;98063.75;5063586;28;20261;-70
2021/04/20 08:06:00;;;;;;;27.97;24.97;;;;;;;9.81;75.82;98064.09;5060742;28;20203;-70
2021/04/20 08:08:31;;;;;;;29.23;26.23;;;;;;;9.86;74.49;98067.13;5062118;28;20226;-70
2021/04/20 08:11:00;;;;;;;28.50;25.80;;;;;;;9.75;74.48;98070.00;5060189;28;20302;-70
2021/04/20 08:13:31;;;;;;;28.87;25.80;;;;;;;9.90;75.81;98075.56;5063023;28;20206;-70
2021/04/20 08:16:02;;;;;;;29.13;25.93;;;;;;;9.98;73.67;98072.94;5059407;28;20207;-70
2021/04/20 08:18:33;;;;;;;27.70;24.90;;;;;;;9.93;73.36;98067.28;5060443;28;20558;-69
2021/04/20 08:21:06;;;;;;;28.40;25.50;;;;;;;9.99;74.53;98064.00;5059879;28;20737;-70
2021/04/20 08:23:37;;;;;;;29.80;26.80;;;;;;;9.91;72.77;98062.16;5062397;28;20373;-69
2021/04/20 08:26:11;;;;;;;29.40;26.23;;;;;;;9.80;73.74;98065.91;5062692;28;20199;-70
2021/04/20 08:28:41;;;;;;;32.13;26.77;;;;;;;9.83;73.10;98065.59;5062005;28;20691;-70
2021/04/20 08:31:12;;;;;;;29.63;26.40;;;;;;;9.85;74.22;98063.63;5061705;28;20235;-70
2021/04/20 08:33:44;;;;;;;31.23;27.93;;;;;;;9.94;75.13;98056.56;5060768;28;20701;-71
2021/04/20 08:36:23;;;;;;;33.27;27.67;;;;;;;10.18;73.53;98056.81;5059974;28;20206;-71
2021/04/20 08:38:54;;;;;;;30.90;27.57;;;;;;;10.53;71.41;98062.91;5059766;28;20203;-71
2021/04/20 08:41:28;;;;;;;34.40;28.93;;;;;;;10.75;72.52;98061.47;5058505;28;20561;-71
2021/04/20 08:44:08;;;;;;;30.40;27.17;;;;;;;11.13;70.38;98066.28;5059624;28;20203;-71
2021/04/20 08:46:48;;;;;;;30.67;25.70;;;;;;;11.41;69.01;98055.34;5061476;28;20226;-71
2021/04/20 08:49:22;;;;;;;29.27;26.17;;;;;;;11.48;68.58;98055.50;5057365;28;20217;-71
2021/04/20 08:51:55;;;;;;;29.53;26.53;;;;;;;11.47;68.04;98056.50;5060658;28;20717;-71
2021/04/20 08:54:47;;;;;;;29.37;26.30;;;;;;;11.40;66.90;98057.19;5062067;28;20207;-71
2021/04/20 08:57:22;;;;;;;29.57;26.60;;;;;;;11.46;65.77;98058.31;5051212;28;20698;-71
2021/04/20 09:00:04;;;;;;;28.50;25.63;;;;;;;11.79;62.79;98044.97;5059829;28;20586;-71
2021/04/20 09:02:42;;;;;;;27.00;24.17;;;;;;;11.67;61.06;98051.66;5057772;28;20214;-71
2021/04/20 09:05:21;;;;;;;26.17;23.60;;;;;;;11.86;61.48;98051.25;5059574;28;20211;-71
2021/04/20 09:08:09;;;;;;;26.67;24.03;;;;;;;12.02;62.03;98042.44;5060650;28;20310;-72
2021/04/20 09:10:43;;;;;;;27.73;24.63;;;;;;;12.24;61.30;98047.16;5061754;28;20353;-71
2021/04/20 09:13:19;;;;;;;27.17;24.33;;;;;;;12.29;60.23;98042.97;5061349;28;20206;-71
2021/04/20 09:15:50;;;;;;;24.87;22.43;;;;;;;12.27;57.86;98049.47;5059240;28;20203;-70
2021/04/20 09:18:20;;;;;;;24.10;21.60;;;;;;;12.17;56.79;98047.03;5060926;28;20587;-71
2021/04/20 09:20:53;;;;;;;22.67;20.47;;;;;;;11.70;56.82;98046.00;5061805;28;20254;-71
2021/04/20 09:23:30;;;;;;;23.03;20.77;;;;;;;11.80;57.59;98048.47;5060703;28;20210;-71
2021/04/20 09:26:04;;;;;;;25.00;22.60;;;;;;;11.41;56.78;98042.06;5060394;28;20518;-71
2021/04/20 09:28:33;;;;;;;24.00;21.57;;;;;;;11.56;57.09;98048.38;5059892;28;20230;-71
2021/04/20 09:31:07;;;;;;;25.30;22.90;;;;;;;11.54;57.12;98034.41;5058511;28;20226;-71
2021/04/20 09:33:39;;;;;;;24.47;22.03;;;;;;;11.81;57.61;98031.53;5059310;28;20205;-71
2021/04/20 09:36:09;;;;;;;18.87;16.97;;;;;;;11.64;55.77;98038.72;5059912;28;20719;-71
2021/04/20 09:38:38;;;;;;;17.30;15.60;;;;;;;11.57;55.13;98030.59;5060781;28;20596;-70
2021/04/20 09:41:07;;;;;;;19.43;17.47;;;;;;;11.53;53.64;98039.91;5056469;28;20486;-71
2021/04/20 09:43:42;;;;;;;19.80;17.97;;;;;;;11.53;54.67;98035.41;5061239;28;20229;-71
2021/04/20 09:46:16;;;;;;;21.27;19.10;;;;;;;11.60;55.69;98040.06;5059798;28;20667;-71
2021/04/20 09:48:51;;;;;;;22.10;19.90;;;;;;;11.80;56.46;98041.31;5060625;28;20318;-70
2021/04/20 09:51:19;;;;;;;19.43;17.53;;;;;;;11.86;54.32;98043.28;5057565;28;20238;-70
2021/04/20 09:53:56;;;;;;;19.63;17.83;;;;;;;11.83;54.73;98037.50;5060042;28;20198;-70
2021/04/20 09:56:30;;;;;;;23.13;20.93;;;;;;;11.68;55.01;98040.84;5058685;28;20213;-70
2021/04/20 09:59:01;;;;;;;19.83;17.87;;;;;;;12.26;53.95;98040.69;5059670;28;20599;-70
2021/04/20 10:01:51;;;;;;;17.23;15.50;;;;;;;12.32;51.50;98040.97;5054874;28;20231;-71
2021/04/20 10:04:39;;;;;;;16.73;15.10;;;;;;;12.43;50.58;98046.75;5048786;28;20731;-70
2021/04/20 10:07:19;;;;;;;17.80;16.10;;;;;;;12.14;52.24;98042.88;5059508;28;20214;-70
2021/04/20 10:09:53;;;;;;;19.53;17.73;;;;;;;11.93;53.53;98037.28;5060247;28;20214;-70
2021/04/20 10:12:36;;;;;;;18.63;16.93;;;;;;;12.50;53.24;98040.72;5055347;28;20241;-70
2021/04/20 10:15:10;;;;;;;18.77;16.97;;;;;;;12.82;53.82;98039.66;5063886;28;20206;-71
2021/04/20 10:17:42;;;;;;;20.10;18.10;;;;;;;13.35;52.18;98030.09;5063795;28;20213;-70
2021/04/20 10:20:17;;;;;;;19.83;17.93;;;;;;;13.40;50.68;98035.69;5064162;28;20759;-71
2021/04/20 10:22:48;;;;;;;22.43;20.17;;;;;;;13.30;51.85;98034.13;5064420;28;20675;-71
2021/04/20 10:25:33;;;;;;;23.70;21.40;;;;;;;13.89;50.72;98040.56;5061033;28;20687;-71
2021/04/20 10:28:11;;;;;;;22.97;20.67;;;;;;;13.78;49.85;98027.69;5063835;28;20369;-71
2021/04/20 10:30:42;;;;;;;24.90;22.33;;;;;;;13.27;51.38;98031.84;5060810;28;20245;-71
2021/04/20 10:33:10;;;;;;;22.80;20.70;;;;;;;13.44;49.57;98026.38;5066021;28;20203;-71
2021/04/20 10:35:38;;;;;;;23.83;21.37;;;;;;;13.65;50.23;98032.81;5062469;28;20207;-70
2021/04/20 10:38:11;;;;;;;22.87;20.73;;;;;;;12.86;53.23;98025.00;5062585;28;20222;-71
2021/04/20 10:40:41;;;;;;;23.93;21.63;;;;;;;12.37;54.05;98022.69;5061560;28;20792;-70
2021/04/20 10:43:10;;;;;;;23.60;21.40;;;;;;;12.03;55.04;98016.72;5064146;28;20222;-70
2021/04/20 10:45:37;;;;;;;21.37;19.27;;;;;;;12.90;52.91;98019.34;5061323;28;20655;-70
2021/04/20 10:48:05;;;;;;;22.63;20.27;;;;;;;13.69;51.17;98010.16;5063459;28;20223;-71
2021/04/20 10:50:34;;;;;;;19.40;17.60;;;;;;;14.24;46.84;98009.84;5063712;28;20473;-70
2021/04/20 10:53:05;;;;;;;19.73;17.83;;;;;;;14.38;45.58;98003.63;5062588;28;20667;-71
2021/04/20 10:55:36;;;;;;;18.23;16.43;;;;;;;14.38;44.42;98005.44;5061560;28;20638;-72
2021/04/20 10:58:05;;;;;;;16.47;14.90;;;;;;;15.08;44.46;97999.59;5061781;28;20685;-70
2021/04/20 11:00:33;;;;;;;16.33;14.80;;;;;;;15.83;44.79;97997.22;5056504;28;20755;-71
2021/04/20 11:03:01;;;;;;;16.50;15.00;;;;;;;15.73;43.43;98000.25;5061457;28;20206;-71
2021/04/20 11:05:30;;;;;;;17.10;15.60;;;;;;;16.36;41.42;97990.44;5062435;28;20211;-71
2021/04/20 11:07:58;;;;;;;15.70;14.30;;;;;;;16.34;40.26;97993.34;5061453;28;20311;-71
2021/04/20 11:10:27;;;;;;;16.53;15.03;;;;;;;16.82;39.71;97985.38;5064754;28;20230;-71
2021/04/20 11:12:55;;;;;;;15.77;14.27;;;;;;;16.47;39.84;97989.84;5062962;28;20207;-71
2021/04/20 11:15:24;;;;;;;15.63;14.33;;;;;;;16.10;40.06;97992.03;5063008;28;20214;-71
2021/04/20 11:18:08;;;;;;;16.70;15.27;;;;;;;15.75;41.55;97984.84;5063260;28;20656;-71
2021/04/20 11:20:37;;;;;;;17.87;16.30;;;;;;;15.57;42.01;97979.19;5062986;28;20229;-71
2021/04/20 11:23:23;;;;;;;18.00;16.27;;;;;;;14.97;42.26;97983.09;5063127;28;20321;-70
2021/04/20 11:25:57;;;;;;;17.30;15.67;;;;;;;14.41;44.90;97979.25;5063808;28;20637;-71
2021/04/20 11:28:28;;;;;;;18.40;16.70;;;;;;;14.62;44.88;97982.97;5060916;28;20226;-71
2021/04/20 11:30:58;;;;;;;19.87;18.17;;;;;;;15.27;43.95;97974.88;5062412;28;20230;-71
2021/04/20 11:33:31;;;;;;;19.40;17.40;;;;;;;15.82;43.74;97960.84;5060979;28;20207;-71
2021/04/20 11:36:02;;;;;;;19.70;17.80;;;;;;;15.42;43.86;97968.63;5061627;28;20293;-71